createdAt,value
2023-04-20T00:00:00.896Z,9.63
2023-04-20T00:03:03.935Z,9.63
2023-04-20T00:06:07.932Z,10.17
2023-04-20T00:09:14.819Z,9.73
2023-04-20T00:12:17.853Z,9.48
2023-04-20T00:15:21.114Z,9.50
2023-04-20T00:18:24.031Z,9.07
2023-04-20T00:21:27.264Z,10.77
2023-04-20T00:24:30.456Z,9.68
2023-04-20T00:27:33.398Z,9.88
2023-04-20T00:30:36.490Z,10.00
2023-04-20T00:33:40.937Z,9.20
2023-04-20T00:36:44.367Z,8.47
2023-04-20T00:39:47.291Z,9.25
2023-04-20T00:42:50.225Z,9.18
2023-04-20T00:45:53.659Z,8.85
2023-04-20T00:48:56.826Z,8.90
2023-04-20T00:52:00.279Z,8.87
2023-04-20T00:55:03.571Z,7.88
2023-04-20T00:58:06.932Z,9.70
2023-04-20T01:01:10.594Z,8.38
2023-04-20T01:04:14.798Z,8.23
2023-04-20T01:07:17.870Z,9.30
2023-04-20T01:10:20.798Z,9.20
2023-04-20T01:13:23.846Z,8.45
2023-04-20T01:16:26.998Z,8.65
2023-04-20T01:19:30.018Z,8.90
2023-04-20T01:22:32.984Z,8.67
2023-04-20T01:25:36.289Z,10.13
2023-04-20T01:28:39.309Z,9.60
2023-04-20T01:31:42.282Z,8.80
2023-04-20T01:34:45.470Z,9.10
2023-04-20T01:37:48.549Z,8.53
2023-04-20T01:40:51.582Z,9.27
2023-04-20T01:43:54.618Z,9.18
2023-04-20T01:46:57.575Z,9.57
2023-04-20T01:50:00.542Z,9.80
2023-04-20T01:53:03.518Z,9.80
2023-04-20T01:56:06.512Z,10.48
2023-04-20T01:59:09.491Z,9.95
2023-04-20T02:02:12.513Z,9.50
2023-04-20T02:05:15.958Z,9.82
2023-04-20T02:08:19.229Z,9.47
2023-04-20T02:11:22.492Z,10.02
2023-04-20T02:14:25.537Z,9.30
2023-04-20T02:17:28.521Z,9.65
2023-04-20T02:20:32.157Z,9.70
2023-04-20T02:23:35.181Z,10.00
2023-04-20T02:26:38.100Z,10.20
2023-04-20T02:29:43.746Z,9.85
2023-04-20T02:32:50.371Z,9.25
2023-04-20T02:35:53.345Z,8.23
2023-04-20T02:38:56.302Z,8.83
2023-04-20T02:41:59.270Z,9.45
2023-04-20T02:45:02.561Z,9.32
2023-04-20T02:48:06.858Z,9.05
2023-04-20T02:51:09.975Z,9.45
2023-04-20T02:54:18.213Z,8.97
2023-04-20T02:57:21.283Z,9.20
2023-04-20T03:00:24.624Z,9.00
2023-04-20T03:03:38.479Z,8.57
2023-04-20T03:06:45.212Z,9.32
2023-04-20T03:09:52.541Z,7.40
2023-04-20T03:12:59.968Z,8.23
2023-04-20T03:16:10.870Z,8.18
2023-04-20T03:19:19.786Z,8.90
2023-04-20T03:22:22.837Z,8.85
2023-04-20T03:25:29.710Z,9.47
2023-04-20T03:28:38.859Z,8.70
2023-04-20T03:31:42.383Z,8.95
2023-04-20T03:34:47.545Z,8.43
2023-04-20T03:37:50.956Z,10.50
2023-04-20T03:40:53.941Z,9.17
2023-04-20T03:43:57.011Z,9.10
2023-04-20T03:46:59.981Z,10.05
2023-04-20T03:50:03.001Z,9.20
2023-04-20T03:53:06.056Z,8.50
2023-04-20T03:56:09.272Z,8.73
2023-04-20T03:59:12.737Z,8.75
2023-04-20T04:02:18.847Z,8.77
2023-04-20T04:05:23.380Z,10.95
2023-04-20T04:08:26.792Z,9.80
2023-04-20T04:11:30.346Z,9.40
2023-04-20T04:14:34.924Z,9.43
2023-04-20T04:17:38.683Z,9.80
2023-04-20T04:20:41.885Z,10.23
2023-04-20T04:23:47.507Z,9.52
2023-04-20T04:27:14.259Z,9.67
2023-04-20T04:30:26.197Z,9.10
2023-04-20T04:33:29.925Z,9.98
2023-04-20T04:36:34.281Z,9.82
2023-04-20T04:39:38.369Z,9.57
2023-04-20T04:42:56.972Z,10.37
2023-04-20T04:46:05.764Z,10.57
2023-04-20T04:49:09.608Z,9.93
2023-04-20T04:52:13.366Z,9.50
2023-04-20T04:55:16.683Z,10.35
2023-04-20T04:58:19.779Z,8.90
2023-04-20T05:01:22.841Z,8.73
2023-04-20T05:04:25.937Z,9.40
2023-04-20T05:07:28.971Z,8.15
2023-04-20T05:10:31.916Z,9.25
2023-04-20T05:13:34.888Z,8.30
2023-04-20T05:16:38.070Z,8.57
2023-04-20T05:19:41.104Z,8.88
2023-04-20T05:22:44.092Z,8.80
2023-04-20T05:25:47.167Z,8.65
2023-04-20T05:28:51.074Z,9.13
2023-04-20T05:31:54.085Z,8.50
2023-04-20T05:34:58.349Z,8.25
2023-04-20T05:38:02.731Z,7.65
2023-04-20T05:41:06.620Z,7.55
2023-04-20T05:44:09.672Z,7.10
2023-04-20T05:47:12.676Z,7.00
2023-04-20T05:50:15.750Z,7.25
2023-04-20T05:53:18.747Z,7.85
2023-04-20T05:56:21.812Z,7.35
2023-04-20T05:59:25.411Z,7.00
2023-04-20T06:02:28.522Z,7.40
2023-04-20T06:05:31.636Z,6.65
2023-04-20T06:08:34.756Z,6.45
2023-04-20T06:11:38.114Z,6.95
2023-04-20T06:14:41.551Z,6.70
2023-04-20T06:17:45.010Z,7.55
2023-04-20T06:20:48.426Z,7.32
2023-04-20T06:23:51.822Z,6.75
2023-04-20T06:26:55.052Z,7.22
2023-04-20T06:29:58.184Z,6.73
2023-04-20T06:33:02.021Z,6.28
2023-04-20T06:36:08.415Z,6.65
2023-04-20T06:39:11.944Z,7.22
2023-04-20T06:42:16.235Z,7.07
2023-04-20T06:45:19.542Z,7.57
2023-04-20T06:48:30.756Z,6.28
2023-04-20T06:51:34.893Z,6.82
2023-04-20T06:54:37.826Z,6.70
2023-04-20T06:57:43.777Z,6.95
2023-04-20T07:00:47.733Z,7.13
2023-04-20T07:03:51.684Z,6.85
2023-04-20T07:06:54.940Z,7.15
2023-04-20T07:09:58.013Z,6.10
2023-04-20T07:13:00.968Z,6.47
2023-04-20T07:16:04.005Z,6.50
2023-04-20T07:19:07.066Z,8.98
2023-04-20T07:22:10.006Z,7.90
2023-04-20T07:25:13.207Z,7.30
2023-04-20T07:28:16.189Z,6.65
2023-04-20T07:31:19.446Z,6.90
2023-04-20T07:34:22.945Z,6.55
2023-04-20T07:37:27.392Z,7.10
2023-04-20T07:40:30.799Z,6.55
2023-04-20T07:43:33.815Z,6.10
2023-04-20T07:46:36.855Z,6.00
2023-04-20T07:49:41.805Z,5.75
2023-04-20T07:52:44.797Z,5.88
2023-04-20T07:55:49.654Z,6.45
2023-04-20T07:58:53.765Z,6.95
2023-04-20T08:02:01.647Z,6.23
2023-04-20T08:05:05.296Z,6.47
2023-04-20T08:08:08.479Z,5.82
2023-04-20T08:11:12.685Z,5.63
2023-04-20T08:14:16.304Z,6.20
2023-04-20T08:17:19.539Z,6.40
2023-04-20T08:20:22.492Z,5.68
2023-04-20T08:23:28.115Z,6.10
2023-04-20T08:26:31.327Z,5.43
2023-04-20T08:29:34.320Z,5.47
2023-04-20T08:32:37.339Z,5.50
2023-04-20T08:35:41.435Z,5.53
2023-04-20T08:38:45.727Z,4.82
2023-04-20T08:41:50.302Z,5.15
2023-04-20T08:44:53.794Z,5.40
2023-04-20T08:47:58.226Z,5.00
2023-04-20T08:51:01.906Z,5.32
2023-04-20T08:54:06.091Z,5.15
2023-04-20T08:57:09.200Z,5.53
2023-04-20T09:00:14.011Z,4.90
2023-04-20T09:03:17.603Z,5.10
2023-04-20T09:06:23.225Z,5.20
2023-04-20T09:09:27.227Z,4.75
2023-04-20T09:12:39.840Z,5.35
2023-04-20T09:15:42.844Z,5.13
2023-04-20T09:18:55.727Z,4.83
2023-04-20T09:22:00.421Z,5.25
2023-04-20T09:25:19.436Z,5.10
2023-04-20T09:28:23.068Z,4.95
2023-04-20T09:31:26.407Z,4.70
2023-04-20T09:34:29.572Z,5.53
2023-04-20T09:37:32.572Z,5.05
2023-04-20T09:40:35.814Z,5.22
2023-04-20T09:43:38.743Z,4.85
2023-04-20T09:46:42.665Z,5.10
2023-04-20T09:49:49.245Z,5.23
2023-04-20T09:52:53.556Z,5.05
2023-04-20T09:55:56.927Z,5.05
2023-04-20T09:59:00.391Z,5.32
2023-04-20T10:02:07.522Z,5.38
2023-04-20T10:05:10.808Z,4.60
2023-04-20T10:08:13.835Z,5.30
2023-04-20T10:11:52.406Z,5.00
2023-04-20T10:14:57.902Z,5.63
2023-04-20T10:18:02.604Z,4.60
2023-04-20T10:21:09.619Z,5.30
2023-04-20T10:24:12.729Z,5.47
2023-04-20T10:27:19.896Z,5.97
2023-04-20T10:30:23.796Z,5.40
2023-04-20T10:33:26.876Z,4.95
2023-04-20T10:36:31.423Z,5.23
2023-04-20T10:39:34.521Z,4.97
2023-04-20T10:42:44.338Z,5.57
2023-04-20T10:45:47.293Z,5.07
2023-04-20T10:48:54.586Z,5.40
2023-04-20T10:51:57.766Z,4.47
2023-04-20T10:55:03.263Z,6.13
2023-04-20T10:58:06.280Z,6.22
2023-04-20T11:01:09.337Z,8.73
2023-04-20T11:04:12.669Z,5.38
2023-04-20T11:07:15.974Z,6.37
2023-04-20T11:10:19.387Z,6.15
2023-04-20T11:13:23.406Z,5.30
2023-04-20T11:16:40.364Z,5.63
2023-04-20T11:19:49.447Z,5.53
2023-04-20T11:22:59.499Z,5.50
2023-04-20T11:26:02.559Z,5.80
2023-04-20T11:29:05.553Z,6.13
2023-04-20T11:32:11.063Z,4.68
2023-04-20T11:35:14.516Z,5.80
2023-04-20T11:38:27.896Z,4.77
2023-04-20T11:41:31.164Z,4.90
2023-04-20T11:44:36.658Z,5.07
2023-04-20T11:47:41.172Z,6.70
2023-04-20T11:50:44.347Z,6.13
2023-04-20T11:53:47.694Z,6.80
2023-04-20T11:56:50.719Z,6.43
2023-04-20T11:59:53.712Z,7.00
2023-04-20T12:02:56.833Z,5.10
2023-04-20T12:06:00.215Z,4.40
2023-04-20T12:09:03.248Z,4.60
2023-04-20T12:12:06.664Z,4.88
2023-04-20T12:15:10.163Z,5.07
2023-04-20T12:18:13.275Z,6.32
2023-04-20T12:21:16.338Z,4.72
2023-04-20T12:24:19.317Z,6.50
2023-04-20T12:27:24.986Z,6.53
2023-04-20T12:30:28.025Z,6.53
2023-04-20T12:33:31.393Z,6.50
2023-04-20T12:36:35.248Z,6.57
2023-04-20T12:39:38.283Z,6.90
2023-04-20T12:42:41.251Z,6.70
2023-04-20T12:45:44.244Z,4.63
2023-04-20T12:48:47.247Z,4.50
2023-04-20T12:51:50.196Z,4.88
2023-04-20T12:54:53.352Z,6.63
2023-04-20T12:57:56.837Z,4.72
2023-04-20T13:00:59.803Z,5.60
2023-04-20T13:04:03.073Z,4.63
2023-04-20T13:07:06.844Z,6.45
2023-04-20T13:10:10.376Z,5.00
2023-04-20T13:13:13.361Z,4.85
2023-04-20T13:16:16.446Z,5.55
2023-04-20T13:19:19.524Z,4.88
2023-04-20T13:22:22.447Z,4.78
2023-04-20T13:25:29.161Z,4.80
2023-04-20T13:28:33.193Z,4.80
2023-04-20T13:31:37.171Z,4.38
2023-04-20T13:34:40.243Z,5.70
2023-04-20T13:37:45.351Z,4.75
2023-04-20T13:40:48.509Z,4.43
2023-04-20T13:43:51.503Z,8.50
2023-04-20T13:46:54.468Z,5.88
2023-04-20T13:49:57.465Z,4.82
2023-04-20T13:53:03.057Z,5.30
2023-04-20T13:56:06.367Z,5.57
2023-04-20T13:59:09.433Z,5.18
2023-04-20T14:02:12.427Z,5.18
2023-04-20T14:05:15.509Z,5.00
2023-04-20T14:08:19.821Z,4.72
2023-04-20T14:11:22.921Z,4.33
2023-04-20T14:14:26.049Z,5.45
2023-04-20T14:17:29.059Z,4.13
2023-04-20T14:20:33.148Z,4.15
2023-04-20T14:23:36.188Z,3.80
2023-04-20T14:26:39.358Z,4.10
2023-04-20T14:29:42.331Z,3.80
2023-04-20T14:32:55.483Z,4.63
2023-04-20T14:35:58.502Z,4.50
2023-04-20T14:39:01.851Z,4.40
2023-04-20T14:42:04.899Z,4.40
2023-04-20T14:45:08.633Z,5.00
2023-04-20T14:48:11.672Z,5.10
2023-04-20T14:51:16.207Z,3.40
2023-04-20T14:54:19.376Z,4.13
2023-04-20T14:57:22.606Z,5.17
2023-04-20T15:00:27.913Z,4.65
2023-04-20T15:03:31.245Z,3.45
2023-04-20T15:06:37.106Z,3.60
2023-04-20T15:09:40.228Z,4.18
2023-04-20T15:12:43.205Z,4.00
2023-04-20T15:15:48.880Z,4.00
2023-04-20T15:18:54.577Z,4.80
2023-04-20T15:21:57.553Z,4.25
2023-04-20T15:25:00.469Z,4.10
2023-04-20T15:28:03.453Z,3.60
2023-04-20T15:31:07.653Z,3.40
2023-04-20T15:34:11.386Z,6.22
2023-04-20T15:37:14.471Z,3.80
2023-04-20T15:40:18.846Z,3.55
2023-04-20T15:43:21.848Z,3.43
2023-04-20T15:46:26.589Z,3.85
2023-04-20T15:49:29.614Z,3.03
2023-04-20T15:52:32.694Z,4.05
2023-04-20T15:55:39.071Z,4.13
2023-04-20T15:58:42.012Z,3.90
2023-04-20T16:01:45.142Z,3.17
2023-04-20T16:04:48.295Z,3.60
2023-04-20T16:07:51.379Z,3.35
2023-04-20T16:10:57.784Z,3.92
2023-04-20T16:14:00.981Z,3.60
2023-04-20T16:17:03.972Z,2.70
2023-04-20T16:20:08.258Z,4.10
2023-04-20T16:23:11.211Z,3.33
2023-04-20T16:26:14.301Z,3.15
2023-04-20T16:29:17.277Z,2.70
2023-04-20T16:32:20.480Z,3.50
2023-04-20T16:35:23.505Z,3.10
2023-04-20T16:38:26.601Z,3.67
2023-04-20T16:41:29.940Z,4.43
2023-04-20T16:44:32.986Z,4.23
2023-04-20T16:47:36.055Z,4.15
2023-04-20T16:50:40.304Z,3.22
2023-04-20T16:53:45.482Z,2.88
2023-04-20T16:56:48.487Z,3.38
2023-04-20T16:59:51.427Z,3.10
2023-04-20T17:02:54.566Z,3.50
2023-04-20T17:05:57.629Z,4.70
2023-04-20T17:09:06.894Z,7.97
2023-04-20T17:12:10.264Z,6.70
2023-04-20T17:15:13.338Z,3.90
2023-04-20T17:18:16.273Z,2.88
2023-04-20T17:21:19.258Z,3.05
2023-04-20T17:24:22.226Z,3.70
2023-04-20T17:27:25.316Z,9.43
2023-04-20T17:30:28.623Z,4.10
2023-04-20T17:33:31.714Z,3.20
2023-04-20T17:36:34.933Z,3.20
2023-04-20T17:39:40.749Z,4.57
2023-04-20T17:42:43.764Z,4.03
2023-04-20T17:45:50.107Z,3.93
2023-04-20T17:48:53.089Z,4.30
2023-04-20T17:51:56.412Z,4.72
2023-04-20T17:55:02.161Z,5.22
2023-04-20T17:58:05.189Z,5.20
2023-04-20T18:01:08.209Z,3.97
2023-04-20T18:04:11.371Z,4.40
2023-04-20T18:07:16.904Z,3.60
2023-04-20T18:10:19.974Z,3.10
2023-04-20T18:13:22.943Z,3.30
2023-04-20T18:16:26.236Z,3.03
2023-04-20T18:19:29.258Z,3.33
2023-04-20T18:22:36.899Z,3.60
2023-04-20T18:25:41.154Z,3.63
2023-04-20T18:28:58.153Z,3.88
2023-04-20T18:32:01.513Z,4.40
2023-04-20T18:35:05.862Z,3.90
2023-04-20T18:38:08.887Z,3.90
2023-04-20T18:41:11.873Z,7.95
2023-04-20T18:44:16.437Z,6.40
2023-04-20T18:47:20.827Z,4.97
2023-04-20T18:50:23.924Z,4.40
2023-04-20T18:53:26.918Z,4.10
2023-04-20T18:56:29.882Z,3.97
2023-04-20T18:59:32.858Z,4.90
2023-04-20T19:02:36.094Z,4.40
2023-04-20T19:05:39.159Z,4.47
2023-04-20T19:08:42.154Z,5.03
2023-04-20T19:11:45.259Z,4.85
2023-04-20T19:14:49.472Z,4.50
2023-04-20T19:17:54.432Z,4.43
2023-04-20T19:20:57.505Z,4.18
2023-04-20T19:24:00.594Z,4.07
2023-04-20T19:27:03.673Z,4.07
2023-04-20T19:30:07.553Z,3.83
2023-04-20T19:33:10.583Z,4.00
2023-04-20T19:36:13.638Z,4.80
2023-04-20T19:39:16.608Z,4.40
2023-04-20T19:42:19.573Z,3.88
2023-04-20T19:45:23.596Z,4.47
2023-04-20T19:48:26.815Z,3.83
2023-04-20T19:51:30.971Z,3.83
2023-04-20T19:54:33.906Z,4.20
2023-04-20T19:57:36.837Z,3.47
2023-04-20T20:00:39.827Z,4.93
2023-04-20T20:03:45.914Z,4.80
2023-04-20T20:06:50.685Z,5.45
2023-04-20T20:09:53.679Z,4.28
2023-04-20T20:12:56.705Z,4.22
2023-04-20T20:16:00.409Z,4.95
2023-04-20T20:19:04.009Z,3.70
2023-04-20T20:22:06.992Z,4.03
2023-04-20T20:25:10.068Z,4.15
2023-04-20T20:28:13.026Z,4.00
2023-04-20T20:31:16.485Z,5.07
2023-04-20T20:34:19.449Z,4.17
2023-04-20T20:37:22.373Z,4.60
2023-04-20T20:40:25.715Z,4.60
2023-04-20T20:43:31.547Z,4.53
2023-04-20T20:46:34.619Z,4.35
2023-04-20T20:49:37.666Z,4.33
2023-04-20T20:52:41.235Z,4.13
2023-04-20T20:55:44.447Z,5.20
2023-04-20T20:58:47.488Z,4.88
2023-04-20T21:01:50.488Z,4.40
2023-04-20T21:04:54.172Z,4.67
2023-04-20T21:07:57.150Z,5.32
2023-04-20T21:11:00.202Z,6.38
2023-04-20T21:14:04.076Z,5.70
2023-04-20T21:17:07.253Z,6.65
2023-04-20T21:20:10.814Z,7.00
2023-04-20T21:23:13.707Z,6.85
2023-04-20T21:26:16.623Z,6.80
2023-04-20T21:29:19.911Z,6.22
2023-04-20T21:32:23.745Z,6.72
2023-04-20T21:35:26.755Z,5.63
2023-04-20T21:38:29.641Z,6.20
2023-04-20T21:41:32.599Z,5.70
2023-04-20T21:44:35.698Z,5.68
2023-04-20T21:47:38.637Z,5.50
2023-04-20T21:50:41.551Z,5.13
2023-04-20T21:53:44.688Z,5.68
2023-04-20T21:56:47.702Z,5.78
2023-04-20T21:59:50.674Z,5.47
2023-04-20T22:02:53.675Z,4.97
2023-04-20T22:05:56.629Z,5.20
2023-04-20T22:08:59.513Z,5.10
2023-04-20T22:12:03.251Z,4.65
2023-04-20T22:15:13.423Z,4.90
2023-04-20T22:18:18.740Z,5.53
2023-04-20T22:21:22.011Z,5.17
2023-04-20T22:24:24.994Z,5.30
2023-04-20T22:27:29.922Z,5.05
2023-04-20T22:30:32.887Z,5.38
2023-04-20T22:33:35.840Z,5.57
2023-04-20T22:36:39.693Z,4.73
2023-04-20T22:39:42.567Z,4.63
2023-04-20T22:42:45.446Z,5.00
2023-04-20T22:45:48.853Z,4.90
2023-04-20T22:48:52.442Z,5.10
2023-04-20T22:51:58.397Z,4.60
2023-04-20T22:55:01.283Z,4.90
2023-04-20T22:58:04.197Z,4.60
2023-04-20T23:01:07.235Z,5.07
2023-04-20T23:04:10.398Z,5.22
2023-04-20T23:07:13.764Z,4.93
2023-04-20T23:10:16.744Z,5.65
2023-04-20T23:13:24.732Z,4.97
2023-04-20T23:16:28.132Z,4.68
2023-04-20T23:19:33.022Z,4.80
2023-04-20T23:22:36.503Z,5.03
2023-04-20T23:25:39.475Z,4.60
2023-04-20T23:28:42.457Z,4.38
2023-04-20T23:31:45.494Z,4.25
2023-04-20T23:34:48.597Z,4.72
2023-04-20T23:37:51.602Z,5.53
2023-04-20T23:40:54.596Z,4.78
2023-04-20T23:43:57.763Z,4.70
2023-04-20T23:47:00.837Z,4.85
2023-04-20T23:50:03.929Z,5.00
2023-04-20T23:53:07.600Z,5.30
2023-04-20T23:56:10.712Z,4.75
2023-04-20T23:59:13.629Z,5.00
